Time;durP1;ratioP1;P1;durP2;ratioP2;P2;SDS_P1;SDS_P2;PMS_P1;PMS_P2;Temp;Humidity;BMP_temperature;BMP_pressure;BME280_temperature;BME280_humidity;BME280_pressure;Samples;Min_cycle;Max_cycle;Signal;HPM_P1;HPM_P2
2022/08/18 00:00:10;;;;;;;35.10;18.45;;;;;;;17.18;100.00;101501.94;7381029;19;20017;-76
2022/08/18 00:02:51;;;;;;;25.73;15.38;;;;;;;17.20;100.00;101491.34;7375637;19;20006;-77
2022/08/18 00:05:30;;;;;;;28.65;16.92;;;;;;;17.25;100.00;101485.13;7377774;19;20044;-78
2022/08/18 00:08:01;;;;;;;34.17;17.85;;;;;;;17.28;100.00;101493.06;7377782;19;20014;-76
2022/08/18 00:10:31;;;;;;;27.75;15.65;;;;;;;17.29;100.00;101492.19;7379373;19;20574;-75
2022/08/18 00:13:01;;;;;;;30.25;17.35;;;;;;;17.30;100.00;101498.38;7377846;19;20007;-77
2022/08/18 00:15:36;;;;;;;29.23;17.13;;;;;;;17.31;100.00;101493.06;7377307;19;20018;-77
2022/08/18 00:18:20;;;;;;;28.25;15.63;;;;;;;17.35;100.00;101490.38;7379385;19;20014;-77
2022/08/18 00:20:50;;;;;;;29.55;17.80;;;;;;;17.38;100.00;101480.66;7381649;19;20035;-75
2022/08/18 00:23:20;;;;;;;30.02;16.85;;;;;;;17.37;100.00;101465.63;7378428;19;20035;-76
2022/08/18 00:25:50;;;;;;;26.63;17.05;;;;;;;17.39;100.00;101465.63;7380855;19;20070;-76
2022/08/18 00:28:20;;;;;;;31.10;16.35;;;;;;;17.38;100.00;101463.88;7382320;19;20447;-76
2022/08/18 00:30:52;;;;;;;27.73;14.68;;;;;;;17.36;100.00;101466.53;7381650;19;20010;-75
2022/08/18 00:33:25;;;;;;;29.42;17.00;;;;;;;17.35;100.00;101461.22;7378582;19;20011;-76
2022/08/18 00:35:55;;;;;;;25.05;14.40;;;;;;;17.38;100.00;101458.56;7380137;19;20574;-76
2022/08/18 00:38:25;;;;;;;24.35;14.13;;;;;;;17.35;100.00;101455.94;7378404;19;20015;-77
2022/08/18 00:40:57;;;;;;;21.70;13.00;;;;;;;17.37;100.00;101464.75;7381118;19;20029;-77
2022/08/18 00:43:43;;;;;;;26.70;15.88;;;;;;;17.39;100.00;101473.56;7376819;19;20014;-77
2022/08/18 00:46:18;;;;;;;23.92;14.75;;;;;;;17.37;100.00;101467.41;7380995;19;20019;-76
2022/08/18 00:48:51;;;;;;;26.77;14.25;;;;;;;17.32;100.00;101468.31;7378403;19;20079;-76
2022/08/18 00:51:25;;;;;;;24.40;14.90;;;;;;;17.29;100.00;101483.34;7378129;19;20010;-75
2022/08/18 00:54:02;;;;;;;26.92;14.20;;;;;;;17.23;100.00;101478.06;7375553;19;20003;-76
2022/08/18 00:56:40;;;;;;;25.83;13.48;;;;;;;17.23;100.00;101483.38;7378570;19;20027;-76
2022/08/18 00:59:14;;;;;;;22.30;13.10;;;;;;;17.21;100.00;101485.13;7379661;19;20455;-76
2022/08/18 01:01:46;;;;;;;24.15;13.35;;;;;;;17.19;100.00;101487.81;7385397;19;20247;-76
2022/08/18 01:04:25;;;;;;;24.85;13.25;;;;;;;17.15;100.00;101490.47;7379360;19;20528;-76
2022/08/18 01:06:59;;;;;;;27.60;13.82;;;;;;;17.10;100.00;101493.13;7384272;19;20051;-76
2022/08/18 01:09:30;;;;;;;24.88;14.32;;;;;;;17.09;100.00;101491.38;7382439;19;20023;-77
2022/08/18 01:11:59;;;;;;;21.05;12.48;;;;;;;17.05;100.00;101488.72;7386975;19;20018;-77
2022/08/18 01:14:49;;;;;;;18.30;11.57;;;;;;;17.02;100.00;101492.28;7387005;19;20026;-77
2022/08/18 01:23:06;;;;;;;20.73;12.23;;;;;;;16.87;100.00;101479.06;7383732;19;20039;-79
2022/08/18 01:28:22;;;;;;;22.58;13.52;;;;;;;16.92;100.00;101486.13;7380250;19;20019;-76
2022/08/18 01:30:57;;;;;;;20.38;12.98;;;;;;;16.89;100.00;101472.00;7378908;19;20028;-77
2022/08/18 01:33:38;;;;;;;27.58;14.32;;;;;;;16.92;100.00;101477.28;7380316;19;20002;-76
2022/08/18 01:36:15;;;;;;;23.23;13.80;;;;;;;16.92;100.00;101487.88;7373175;19;20435;-77
2022/08/18 01:38:50;;;;;;;21.40;12.50;;;;;;;16.91;100.00;101505.53;7375382;19;20014;-76
2022/08/18 01:41:20;;;;;;;19.13;11.45;;;;;;;16.88;100.00;101496.72;7377754;19;20023;-76
2022/08/18 01:44:04;;;;;;;21.50;11.65;;;;;;;16.83;100.00;101498.50;7377787;19;20014;-77
2022/08/18 01:46:38;;;;;;;19.17;11.52;;;;;;;16.80;100.00;101496.72;7377195;19;20011;-78
2022/08/18 01:49:09;;;;;;;17.63;10.93;;;;;;;16.75;100.00;101489.69;7375266;19;20031;-77
2022/08/18 01:51:42;;;;;;;18.27;11.40;;;;;;;16.73;100.00;101496.75;7374479;19;20017;-77
2022/08/18 01:54:17;;;;;;;18.48;11.70;;;;;;;16.72;100.00;101505.56;7371563;19;20011;-77
2022/08/18 01:56:48;;;;;;;23.38;11.68;;;;;;;16.71;100.00;101512.63;7376972;19;20007;-77
2022/08/18 01:59:18;;;;;;;18.85;11.63;;;;;;;16.70;100.00;101516.16;7375808;19;20010;-77
2022/08/18 02:01:54;;;;;;;19.52;11.63;;;;;;;16.65;100.00;101510.88;7376569;19;20044;-77
2022/08/18 02:04:29;;;;;;;17.92;10.70;;;;;;;16.59;100.00;101510.00;7374346;19;20031;-78
2022/08/18 02:07:11;;;;;;;23.67;12.35;;;;;;;16.55;100.00;101505.59;7378658;19;20014;-78
2022/08/18 02:09:45;;;;;;;18.77;10.73;;;;;;;16.55;100.00;101509.13;7374468;19;20011;-77
2022/08/18 02:12:19;;;;;;;19.80;11.20;;;;;;;16.51;100.00;101510.00;7375536;19;20018;-78
2022/08/18 02:14:50;;;;;;;20.23;11.45;;;;;;;16.49;100.00;101511.78;7377554;19;20122;-78
2022/08/18 02:17:21;;;;;;;21.45;12.20;;;;;;;16.47;100.00;101512.66;7377866;19;20027;-79
2022/08/18 02:19:52;;;;;;;20.90;11.57;;;;;;;16.45;100.00;101502.06;7377871;19;20385;-76
2022/08/18 02:22:23;;;;;;;20.27;11.15;;;;;;;16.44;100.00;101502.06;7380888;19;20011;-77
2022/08/18 02:25:01;;;;;;;22.35;12.20;;;;;;;16.42;100.00;101503.84;7378677;19;20087;-77
2022/08/18 02:27:38;;;;;;;19.58;11.75;;;;;;;16.38;100.00;101500.31;7376999;19;20038;-77
2022/08/18 02:30:12;;;;;;;20.92;11.65;;;;;;;16.35;100.00;101506.47;7383439;19;20035;-77
2022/08/18 02:32:42;;;;;;;21.05;12.35;;;;;;;16.31;100.00;101507.34;7381534;19;20551;-77
2022/08/18 02:35:13;;;;;;;19.60;11.65;;;;;;;16.29;100.00;101508.25;7378080;19;20007;-77
2022/08/18 02:37:46;;;;;;;21.65;12.60;;;;;;;16.27;100.00;101507.34;7383952;19;20429;-76
2022/08/18 02:40:20;;;;;;;24.02;12.50;;;;;;;16.24;100.00;101507.34;7382758;19;20016;-76
2022/08/18 02:42:51;;;;;;;22.83;12.93;;;;;;;16.20;100.00;101510.88;7383941;19;20042;-76
2022/08/18 02:45:22;;;;;;;22.35;12.25;;;;;;;16.18;100.00;101507.34;7379519;19;20040;-76
2022/08/18 02:47:53;;;;;;;22.70;12.90;;;;;;;16.16;100.00;101510.00;7386633;19;20035;-75
2022/08/18 02:50:24;;;;;;;21.88;12.25;;;;;;;16.13;100.00;101501.16;7389254;19;20125;-77
2022/08/18 02:52:54;;;;;;;23.15;13.15;;;;;;;16.12;100.00;101512.63;7386328;19;20014;-78
2022/08/18 02:55:28;;;;;;;19.98;12.75;;;;;;;16.08;100.00;101516.16;7389390;19;20326;-77
2022/08/18 02:58:02;;;;;;;24.77;13.98;;;;;;;16.08;100.00;101516.16;7386212;19;20023;-76
2022/08/18 03:00:34;;;;;;;21.88;12.93;;;;;;;16.07;100.00;101532.91;7377593;19;20679;-78
2022/08/18 03:03:04;;;;;;;21.83;13.68;;;;;;;16.04;100.00;101528.50;7381429;19;20011;-76
2022/08/18 03:05:37;;;;;;;21.92;13.05;;;;;;;16.00;100.00;101530.25;7383160;19;20366;-77
2022/08/18 03:08:09;;;;;;;19.60;12.00;;;;;;;15.97;100.00;101529.38;7383005;19;20028;-78
2022/08/18 03:10:41;;;;;;;24.75;13.68;;;;;;;15.99;100.00;101532.91;7380745;19;20014;-78
2022/08/18 03:13:12;;;;;;;25.60;13.73;;;;;;;15.99;100.00;101532.91;7382263;19;20015;-77
2022/08/18 03:15:43;;;;;;;23.50;12.77;;;;;;;15.98;100.00;101532.00;7384385;19;20574;-77
2022/08/18 03:18:14;;;;;;;23.05;13.77;;;;;;;16.00;100.00;101532.91;7382936;19;20015;-76
2022/08/18 03:20:44;;;;;;;24.10;13.30;;;;;;;16.00;100.00;101532.91;7376276;19;20006;-77
2022/08/18 03:23:15;;;;;;;24.13;13.20;;;;;;;15.99;100.00;101533.78;7384512;19;20070;-77
2022/08/18 03:25:50;;;;;;;23.52;13.35;;;;;;;16.03;100.00;101537.31;7382934;19;20139;-77
2022/08/18 03:28:21;;;;;;;23.13;14.50;;;;;;;16.08;100.00;101537.31;7382097;19;20015;-79
2022/08/18 03:30:51;;;;;;;23.15;13.40;;;;;;;16.09;100.00;101539.97;7384925;19;20051;-77
2022/08/18 03:33:22;;;;;;;26.35;14.40;;;;;;;16.12;100.00;101523.22;7380791;19;20010;-79
2022/08/18 03:35:52;;;;;;;24.50;14.63;;;;;;;16.11;100.00;101524.09;7382793;19;20086;-76
2022/08/18 03:38:21;;;;;;;23.02;13.88;;;;;;;16.09;100.00;101525.84;7378225;19;20022;-76
2022/08/18 03:40:55;;;;;;;23.23;13.48;;;;;;;16.09;100.00;101533.78;7379706;19;20476;-76
2022/08/18 03:43:31;;;;;;;22.25;13.68;;;;;;;16.08;100.00;101532.03;7379013;19;20129;-75
2022/08/18 03:46:22;;;;;;;25.05;13.23;;;;;;;16.06;100.00;101537.31;7380561;19;20014;-75
2022/08/18 03:48:53;;;;;;;25.52;13.50;;;;;;;16.03;100.00;101535.56;7379110;19;20017;-76
2022/08/18 03:51:26;;;;;;;22.92;12.43;;;;;;;16.01;100.00;101537.31;7383486;19;20039;-77
2022/08/18 03:54:04;;;;;;;25.52;15.30;;;;;;;16.01;100.00;101526.72;7374585;19;20020;-76
2022/08/18 03:56:40;;;;;;;20.98;12.75;;;;;;;15.99;100.00;101524.97;7381428;19;20006;-76
2022/08/18 03:59:13;;;;;;;22.88;12.57;;;;;;;15.96;100.00;101525.84;7375555;19;20074;-76
2022/08/18 04:01:45;;;;;;;24.30;14.48;;;;;;;15.96;100.00;101536.41;7376885;19;20011;-76
2022/08/18 04:04:17;;;;;;;21.83;12.90;;;;;;;15.95;100.00;101536.41;7381056;19;20011;-75
2022/08/18 04:06:52;;;;;;;22.73;14.40;;;;;;;15.97;100.00;101534.66;7380530;19;20039;-77
2022/08/18 04:09:24;;;;;;;21.55;11.95;;;;;;;15.92;100.00;101532.00;7379704;19;20523;-76
2022/08/18 04:11:57;;;;;;;22.70;13.23;;;;;;;15.91;100.00;101532.00;7382265;19;20002;-74
2022/08/18 04:14:32;;;;;;;20.63;13.05;;;;;;;15.88;100.00;101530.22;7384222;19;20045;-77
2022/08/18 04:17:07;;;;;;;23.73;14.68;;;;;;;15.90;100.00;101528.47;7386116;19;20010;-75
2022/08/18 04:19:38;;;;;;;25.20;14.07;;;;;;;15.89;100.00;101526.69;7392859;19;20388;-78
2022/08/18 04:22:08;;;;;;;24.02;13.15;;;;;;;15.88;100.00;101519.66;7390048;19;20014;-78
2022/08/18 04:24:46;;;;;;;27.15;14.23;;;;;;;15.91;100.00;101524.94;7386385;19;20014;-76
2022/08/18 04:27:24;;;;;;;26.05;14.82;;;;;;;15.86;100.00;101518.75;7383476;19;20018;-78
2022/08/18 04:29:55;;;;;;;23.88;13.48;;;;;;;15.83;100.00;101516.09;7386084;19;20014;-78
2022/08/18 04:32:26;;;;;;;22.70;14.48;;;;;;;15.85;100.00;101517.00;7382674;19;20010;-78
2022/08/18 04:35:01;;;;;;;22.13;13.73;;;;;;;15.82;100.00;101517.00;7379657;19;20038;-78
2022/08/18 04:37:34;;;;;;;24.60;13.45;;;;;;;15.81;100.00;101515.22;7382757;19;20010;-80
2022/08/18 04:40:09;;;;;;;24.35;14.13;;;;;;;15.81;100.00;101511.69;7380875;19;20010;-75
2022/08/18 04:42:44;;;;;;;23.27;13.00;;;;;;;15.80;100.00;101512.56;7376542;19;20015;-75
2022/08/18 04:45:17;;;;;;;26.13;16.25;;;;;;;15.81;100.00;101520.50;7379554;19;20109;-78
2022/08/18 04:47:47;;;;;;;26.58;15.32;;;;;;;15.80;100.00;101510.81;7379898;19;20035;-76
2022/08/18 04:50:18;;;;;;;25.63;13.80;;;;;;;15.80;100.00;101517.88;7378834;19;20021;-76
2022/08/18 04:55:30;;;;;;;24.08;13.88;;;;;;;15.80;100.00;101515.22;7379953;19;20014;-79
2022/08/18 04:58:03;;;;;;;26.55;14.90;;;;;;;15.81;100.00;101514.34;7381688;19;20021;-77
2022/08/18 05:00:35;;;;;;;26.08;13.98;;;;;;;15.79;100.00;101511.69;7377203;19;20007;-77
2022/08/18 05:03:08;;;;;;;26.50;14.93;;;;;;;15.79;100.00;101514.34;7381020;19;20007;-77
2022/08/18 05:05:38;;;;;;;29.10;16.15;;;;;;;15.83;100.00;101516.09;7376662;19;20002;-77
2022/08/18 05:08:08;;;;;;;28.95;14.70;;;;;;;15.84;100.00;101517.88;7375315;19;20062;-76
2022/08/18 05:10:39;;;;;;;28.30;15.35;;;;;;;15.84;100.00;101527.56;7375204;19;20632;-76
2022/08/18 05:13:15;;;;;;;32.13;18.23;;;;;;;15.91;100.00;101524.06;7379408;19;20035;-76
2022/08/18 05:15:45;;;;;;;34.30;17.98;;;;;;;16.00;100.00;101518.78;7379061;19;20059;-76
2022/08/18 05:18:40;;;;;;;30.48;18.50;;;;;;;16.00;100.00;101535.53;7377507;19;20010;-77
2022/08/18 05:21:14;;;;;;;29.77;16.73;;;;;;;16.01;100.00;101532.03;7377585;19;20476;-76
2022/08/18 05:23:44;;;;;;;31.48;18.90;;;;;;;16.06;100.00;101525.84;7376974;19;20010;-76
2022/08/18 05:26:15;;;;;;;27.67;17.80;;;;;;;16.05;100.00;101532.03;7380097;19;20051;-79
2022/08/18 05:28:49;;;;;;;36.00;18.55;;;;;;;16.04;100.00;101531.16;7384729;19;20039;-76
2022/08/18 05:31:39;;;;;;;36.25;19.58;;;;;;;16.08;100.00;101518.81;7377520;19;20676;-76
2022/08/18 05:34:09;;;;;;;34.92;19.73;;;;;;;16.14;100.00;101534.69;7379945;19;20010;-79
2022/08/18 05:36:56;;;;;;;34.40;18.55;;;;;;;16.21;100.00;101518.81;7388996;19;20019;-79
2022/08/18 05:39:30;;;;;;;32.35;17.60;;;;;;;16.33;100.00;101531.19;7377497;19;20011;-77
2022/08/18 05:42:10;;;;;;;29.80;16.48;;;;;;;16.47;100.00;101533.84;7377530;19;20010;-77
2022/08/18 05:44:47;;;;;;;32.38;17.65;;;;;;;16.67;100.00;101526.78;7384194;19;20014;-77
2022/08/18 05:47:24;;;;;;;36.90;18.05;;;;;;;16.86;100.00;101524.97;7385884;19;20039;-79
2022/08/18 05:49:56;;;;;;;35.20;19.95;;;;;;;17.09;100.00;101520.53;7388318;19;20010;-81
2022/08/18 05:52:37;;;;;;;37.08;21.17;;;;;;;17.27;100.00;101517.81;7380622;19;20017;-80
2022/08/18 05:58:01;;;;;;;35.17;18.73;;;;;;;17.75;100.00;101510.53;7382303;19;20041;-78
2022/08/18 06:00:39;;;;;;;35.47;18.98;;;;;;;18.00;100.00;101513.03;7382460;19;20014;-79
2022/08/18 06:03:18;;;;;;;35.53;19.13;;;;;;;18.23;100.00;101521.72;7381221;19;20015;-79
2022/08/18 06:05:56;;;;;;;35.75;19.63;;;;;;;18.43;100.00;101522.44;7381955;19;20015;-76
2022/08/18 06:08:32;;;;;;;35.53;18.23;;;;;;;18.63;100.00;101521.44;7376699;19;20366;-77
2022/08/18 06:11:08;;;;;;;30.58;18.95;;;;;;;18.73;100.00;101523.06;7373906;19;20006;-77
2022/08/18 06:13:52;;;;;;;32.33;18.00;;;;;;;18.87;100.00;101518.50;7372132;19;20049;-76
2022/08/18 06:16:43;;;;;;;28.45;18.30;;;;;;;19.01;100.00;101516.59;7372807;19;20017;-75
2022/08/18 06:19:30;;;;;;;29.08;18.25;;;;;;;19.34;100.00;101522.44;7377176;19;20029;-77
2022/08/18 06:22:14;;;;;;;30.67;17.00;;;;;;;19.54;100.00;101517.78;7373353;19;20014;-75
2022/08/18 06:24:51;;;;;;;28.17;15.88;;;;;;;19.78;100.00;101517.41;7378570;19;20014;-79
2022/08/18 06:27:39;;;;;;;27.77;16.55;;;;;;;19.97;100.00;101522.47;7377711;19;20015;-79
2022/08/18 06:30:17;;;;;;;27.75;16.90;;;;;;;20.18;100.00;101524.81;7375152;19;20442;-79
2022/08/18 06:33:11;;;;;;;25.70;16.02;;;;;;;20.39;100.00;101521.84;7376451;19;20025;-78
2022/08/18 06:35:50;;;;;;;27.20;16.52;;;;;;;20.57;100.00;101520.66;7374749;19;20014;-77
2022/08/18 06:38:40;;;;;;;25.88;16.30;;;;;;;20.60;100.00;101520.63;7374116;19;20006;-77
2022/08/18 06:41:19;;;;;;;28.70;17.13;;;;;;;20.87;100.00;101525.44;7374604;19;20697;-78
2022/08/18 06:44:13;;;;;;;29.58;15.80;;;;;;;20.97;100.00;101523.47;7375195;19;20007;-74
2022/08/18 06:46:48;;;;;;;23.42;13.73;;;;;;;20.89;100.00;101525.41;7375397;19;20035;-74
2022/08/18 06:49:39;;;;;;;22.38;13.38;;;;;;;20.66;100.00;101527.63;7375407;19;20010;-75
2022/08/18 06:52:30;;;;;;;17.20;10.57;;;;;;;20.67;100.00;101542.72;7366259;19;20018;-75
2022/08/18 06:55:05;;;;;;;16.70;10.27;;;;;;;21.02;100.00;101550.06;7375141;19;20130;-79
2022/08/18 06:57:39;;;;;;;14.93;9.68;;;;;;;20.97;100.00;101546.59;7379280;19;20010;-80
2022/08/18 07:00:23;;;;;;;17.23;11.40;;;;;;;20.98;100.00;101553.69;7379141;19;20015;-78
2022/08/18 07:02:57;;;;;;;17.35;10.75;;;;;;;21.13;100.00;101548.94;7382256;19;20048;-81
2022/08/18 07:05:39;;;;;;;17.48;9.48;;;;;;;20.77;100.00;101554.97;7392238;19;20015;-81
2022/08/18 07:08:17;;;;;;;15.95;10.25;;;;;;;20.52;100.00;101550.06;7387638;19;20014;-80
2022/08/18 07:10:50;;;;;;;15.23;8.93;;;;;;;20.95;100.00;101557.28;7381387;19;20013;-80
2022/08/18 07:13:27;;;;;;;14.75;8.60;;;;;;;21.37;100.00;101560.06;7387945;19;20587;-79
2022/08/18 07:16:18;;;;;;;13.23;8.85;;;;;;;21.87;100.00;101559.88;7389118;19;20010;-83
2022/08/18 07:19:09;;;;;;;13.13;7.43;;;;;;;21.52;100.00;101566.00;7382837;19;20006;-78
2022/08/18 07:21:42;;;;;;;14.25;7.70;;;;;;;21.43;100.00;101557.28;7322167;19;20090;-79
2022/08/18 07:24:14;;;;;;;13.52;8.18;;;;;;;21.28;100.00;101565.59;7381111;19;20017;-78
2022/08/18 07:27:06;;;;;;;12.88;7.45;;;;;;;21.31;100.00;101565.53;7381409;19;20006;-76
2022/08/18 07:29:41;;;;;;;11.05;6.80;;;;;;;20.85;100.00;101569.03;7380048;19;20051;-78
2022/08/18 07:32:22;;;;;;;11.63;6.75;;;;;;;21.49;100.00;101557.16;7387693;19;20007;-81
2022/08/18 07:34:57;;;;;;;12.02;6.85;;;;;;;21.80;100.00;101560.94;7385564;19;20014;-76
2022/08/18 07:37:41;;;;;;;9.95;6.75;;;;;;;22.40;100.00;101565.81;7379515;19;20042;-76
2022/08/18 07:40:22;;;;;;;9.30;6.45;;;;;;;22.58;100.00;101564.47;7391282;19;20265;-81
2022/08/18 07:43:01;;;;;;;10.05;6.53;;;;;;;23.08;100.00;101570.31;7387729;19;20038;-79
2022/08/18 07:45:37;;;;;;;11.50;5.70;;;;;;;22.95;100.00;101568.91;7390411;19;20007;-80
2022/08/18 07:48:15;;;;;;;10.93;6.63;;;;;;;23.40;100.00;101572.13;7380206;19;20550;-80
2022/08/18 07:51:14;;;;;;;9.05;5.75;;;;;;;23.34;100.00;101574.97;7379984;19;20066;-79
2022/08/18 07:54:00;;;;;;;11.82;6.60;;;;;;;23.44;100.00;101568.44;7374582;19;20055;-78
2022/08/18 07:56:42;;;;;;;11.85;6.95;;;;;;;23.15;100.00;101572.78;7385760;19;20085;-79
2022/08/18 07:59:19;;;;;;;8.20;5.72;;;;;;;23.16;100.00;101574.56;7380896;19;20027;-74
2022/08/18 08:01:56;;;;;;;11.05;6.00;;;;;;;22.78;100.00;101580.91;7382143;19;20074;-75
2022/08/18 08:04:41;;;;;;;8.55;5.78;;;;;;;22.63;100.00;101583.09;7379063;19;20025;-75
2022/08/18 08:07:19;;;;;;;8.63;5.65;;;;;;;22.48;100.00;101585.22;7379248;19;20010;-75
2022/08/18 08:10:11;;;;;;;11.20;5.25;;;;;;;22.71;100.00;101581.09;7384359;19;20118;-75
2022/08/18 08:12:45;;;;;;;8.75;4.97;;;;;;;22.70;100.00;101569.53;7381603;19;20558;-76
2022/08/18 08:15:27;;;;;;;7.90;4.50;;;;;;;23.16;100.00;101579.91;7386076;19;20010;-78
2022/08/18 08:18:08;;;;;;;8.23;4.95;;;;;;;23.68;100.00;101583.81;7384471;19;20078;-78
2022/08/18 08:20:44;;;;;;;7.38;4.65;;;;;;;23.61;100.00;101584.94;7384551;19;20108;-79
2022/08/18 08:23:32;;;;;;;7.57;5.15;;;;;;;23.52;100.00;101577.13;7383152;19;20050;-78
2022/08/18 08:26:27;;;;;;;8.20;4.50;;;;;;;22.74;100.00;101575.66;7383772;19;20015;-77
2022/08/18 08:29:15;;;;;;;8.65;4.70;;;;;;;22.37;100.00;101576.56;7380690;19;20025;-78
2022/08/18 08:31:51;;;;;;;8.15;4.70;;;;;;;22.81;100.00;101572.84;7383263;19;20011;-78
2022/08/18 08:34:40;;;;;;;8.45;4.65;;;;;;;22.82;100.00;101568.38;7383601;19;20490;-78
2022/08/18 08:37:16;;;;;;;10.23;4.40;;;;;;;22.64;100.00;101563.44;7380220;19;20032;-76
2022/08/18 08:39:54;;;;;;;9.80;4.55;;;;;;;22.34;100.00;101565.97;7380040;19;20018;-76
2022/08/18 08:42:39;;;;;;;8.85;4.70;;;;;;;22.21;100.00;101571.63;7382491;19;20014;-77
2022/08/18 08:45:15;;;;;;;7.03;4.78;;;;;;;22.88;100.00;101568.19;7381399;19;20589;-76
2022/08/18 08:47:53;;;;;;;8.52;4.93;;;;;;;23.38;100.00;101568.59;7382327;19;20424;-78
2022/08/18 08:50:37;;;;;;;10.32;4.88;;;;;;;22.84;100.00;101571.88;7384099;19;20010;-75
2022/08/18 08:53:16;;;;;;;6.13;4.10;;;;;;;23.60;100.00;101584.97;7377095;19;20448;-77
2022/08/18 08:55:49;;;;;;;8.07;4.43;;;;;;;24.26;100.00;101568.66;7383518;19;20258;-76
2022/08/18 08:58:25;;;;;;;7.28;4.32;;;;;;;24.18;100.00;101567.97;7383833;19;20323;-78
2022/08/18 09:01:34;;;;;;;8.55;4.50;;;;;;;24.02;100.00;101564.91;7378855;19;20037;-76
2022/08/18 09:04:22;;;;;;;8.35;4.07;;;;;;;24.36;100.00;101562.06;7380769;19;20060;-77
2022/08/18 09:07:00;;;;;;;6.22;3.70;;;;;;;23.69;100.00;101569.50;7385750;19;20070;-78
2022/08/18 09:10:09;;;;;;;6.55;3.45;;;;;;;23.58;100.00;101571.63;7384890;19;20500;-76
2022/08/18 09:13:00;;;;;;;6.22;3.47;;;;;;;23.93;100.00;101572.34;7386375;19;20090;-77
2022/08/18 09:16:09;;;;;;;4.72;3.10;;;;;;;24.16;100.00;101577.88;7385843;19;20014;-77
2022/08/18 09:18:55;;;;;;;10.50;3.15;;;;;;;24.83;100.00;101573.03;7390797;19;20007;-76
2022/08/18 09:21:39;;;;;;;5.82;3.08;;;;;;;25.25;100.00;101567.06;7385091;19;20031;-76
2022/08/18 09:24:20;;;;;;;6.82;3.20;;;;;;;24.54;100.00;101562.41;7386365;19;20554;-79
2022/08/18 09:30:40;;;;;;;5.30;2.85;;;;;;;24.56;100.00;101568.59;7385838;19;19962;-77
2022/08/18 09:33:46;;;;;;;5.28;3.05;;;;;;;24.42;100.00;101583.31;7381732;19;20093;-79
2022/08/18 09:36:34;;;;;;;5.70;3.03;;;;;;;25.06;100.00;101575.78;7375157;19;20319;-76
2022/08/18 09:42:13;;;;;;;5.13;2.90;;;;;;;25.07;100.00;101572.16;7381708;19;20010;-79
2022/08/18 09:45:35;;;;;;;4.82;2.85;;;;;;;25.52;100.00;101573.25;7381944;19;20031;-78
2022/08/18 09:48:25;;;;;;;6.38;3.30;;;;;;;25.93;100.00;101574.41;7381265;19;20101;-77
2022/08/18 09:51:17;;;;;;;5.07;3.13;;;;;;;26.58;100.00;101573.56;7378840;19;20021;-78
2022/08/18 09:54:23;;;;;;;4.80;2.85;;;;;;;26.43;98.06;101567.00;7377094;19;20015;-77
2022/08/18 09:57:19;;;;;;;6.05;3.10;;;;;;;26.23;100.00;101564.22;7382499;19;20516;-78
2022/08/18 09:59:57;;;;;;;5.55;3.15;;;;;;;26.20;100.00;101567.03;7377483;19;20018;-79
2022/08/18 10:03:13;;;;;;;5.65;3.63;;;;;;;26.02;99.34;101557.88;7377817;19;20065;-80
2022/08/18 10:06:05;;;;;;;8.02;3.40;;;;;;;25.15;100.00;101557.59;7379916;19;20018;-77
2022/08/18 10:09:10;;;;;;;6.68;3.03;;;;;;;24.61;100.00;101558.59;7373084;19;20049;-78
2022/08/18 10:12:34;;;;;;;6.88;3.30;;;;;;;24.50;100.00;101558.06;7375957;19;20006;-77
2022/08/18 10:18:34;;;;;;;8.63;3.95;;;;;;;23.93;100.00;101557.16;7374649;19;20056;-79
2022/08/18 10:21:13;;;;;;;9.32;3.33;;;;;;;24.27;100.00;101551.66;7373636;19;20074;-78
2022/08/18 10:23:57;;;;;;;8.15;3.50;;;;;;;23.64;100.00;101567.91;7381362;19;20011;-78
2022/08/18 10:27:27;;;;;;;7.47;3.35;;;;;;;23.90;100.00;101562.63;7382179;19;20007;-76
2022/08/18 10:30:04;;;;;;;7.60;3.67;;;;;;;24.14;100.00;101566.31;7375650;19;20039;-76
2022/08/18 10:32:47;;;;;;;6.82;3.58;;;;;;;24.07;100.00;101565.63;7377814;19;20027;-76
2022/08/18 10:36:07;;;;;;;6.78;3.33;;;;;;;24.08;100.00;101562.03;7375236;19;21633;-76
2022/08/18 10:38:48;;;;;;;6.43;3.47;;;;;;;24.47;100.00;101553.69;7374413;19;20023;-76
2022/08/18 10:41:30;;;;;;;8.68;3.25;;;;;;;24.64;100.00;101542.38;7378995;19;20029;-77
2022/08/18 10:44:04;;;;;;;11.77;3.92;;;;;;;24.78;100.00;101548.16;7383968;19;20014;-77
2022/08/18 10:47:00;;;;;;;8.50;3.42;;;;;;;25.48;100.00;101539.38;7382123;19;20131;-79
2022/08/18 10:49:36;;;;;;;9.77;3.92;;;;;;;25.87;100.00;101540.56;7388478;19;20014;-77
2022/08/18 10:52:29;;;;;;;10.48;3.80;;;;;;;25.53;100.00;101554.38;7391615;19;20029;-76
2022/08/18 10:55:27;;;;;;;8.23;3.55;;;;;;;25.51;100.00;101553.56;7388864;19;20521;-81
2022/08/18 10:58:45;;;;;;;11.17;3.93;;;;;;;26.35;98.83;101548.50;7387676;19;20109;-77
2022/08/18 11:01:29;;;;;;;7.05;3.47;;;;;;;26.07;99.43;101550.50;7391253;19;20017;-78
2022/08/18 11:04:23;;;;;;;9.48;3.90;;;;;;;25.62;100.00;101559.41;7387423;19;20021;-78
2022/08/18 11:07:11;;;;;;;9.65;4.13;;;;;;;25.50;99.95;101559.88;7387607;19;20256;-77
2022/08/18 11:09:44;;;;;;;10.75;3.70;;;;;;;25.79;98.83;101552.56;7391220;19;20010;-78
2022/08/18 11:12:56;;;;;;;10.77;4.10;;;;;;;25.94;98.69;101550.16;7399808;19;20015;-81
2022/08/18 11:15:48;;;;;;;7.10;3.47;;;;;;;25.88;94.74;101550.38;7396728;19;20070;-79
2022/08/18 11:18:32;;;;;;;10.43;3.92;;;;;;;25.73;94.38;101546.47;7389046;19;20006;-78
2022/08/18 11:21:41;;;;;;;6.73;3.67;;;;;;;25.86;94.08;101546.00;7389828;19;20039;-79
2022/08/18 11:24:19;;;;;;;8.82;3.88;;;;;;;25.49;91.19;101550.06;7388871;19;20293;-79
2022/08/18 11:26:53;;;;;;;7.20;3.70;;;;;;;25.53;91.20;101548.16;7384632;19;20045;-78
2022/08/18 11:29:40;;;;;;;7.40;3.50;;;;;;;25.81;91.28;101548.00;7382165;19;20038;-78
2022/08/18 11:32:13;;;;;;;6.78;4.00;;;;;;;25.63;90.69;101553.13;7387380;19;20426;-78
2022/08/18 11:34:48;;;;;;;8.73;3.75;;;;;;;25.79;92.28;101539.13;7388974;19;20097;-78
2022/08/18 11:37:32;;;;;;;8.48;3.80;;;;;;;26.05;90.45;101541.63;7383865;19;20010;-76
2022/08/18 11:40:30;;;;;;;8.27;3.90;;;;;;;26.04;87.77;101538.06;7379635;19;20013;-77
2022/08/18 11:43:26;;;;;;;6.32;4.00;;;;;;;26.74;84.82;101526.22;7378429;19;20145;-77
2022/08/18 11:46:04;;;;;;;8.70;3.60;;;;;;;26.83;80.69;101531.22;7381841;19;20014;-76
2022/08/18 11:48:44;;;;;;;6.32;3.17;;;;;;;26.39;82.96;101531.28;7381754;19;20314;-75
2022/08/18 11:51:24;;;;;;;9.23;3.70;;;;;;;26.10;84.94;101533.38;7375376;19;20045;-76
2022/08/18 11:54:04;;;;;;;6.57;3.45;;;;;;;25.70;85.37;101522.44;7371786;19;20632;-78
2022/08/18 11:56:39;;;;;;;6.57;3.33;;;;;;;26.14;82.79;101508.13;7379410;19;20414;-78
2022/08/18 11:59:31;;;;;;;7.65;3.42;;;;;;;25.70;84.83;101511.69;7374732;19;20468;-77
2022/08/18 12:02:24;;;;;;;7.97;3.92;;;;;;;25.44;84.68;101506.41;7375375;19;20646;-77
2022/08/18 12:04:59;;;;;;;7.00;3.60;;;;;;;26.07;85.39;101507.50;7380450;19;20010;-78
2022/08/18 12:07:38;;;;;;;7.90;3.80;;;;;;;26.58;84.01;101503.63;7379973;19;20403;-78
2022/08/18 12:10:32;;;;;;;8.48;4.15;;;;;;;27.08;75.73;101495.16;7379316;19;20002;-78
2022/08/18 12:13:08;;;;;;;7.18;3.60;;;;;;;26.95;79.10;101498.38;7381991;19;20138;-77
2022/08/18 12:15:40;;;;;;;6.57;3.75;;;;;;;27.50;75.09;101490.47;7387366;19;20031;-78
2022/08/18 12:18:19;;;;;;;9.70;3.80;;;;;;;27.84;73.76;101492.47;7388055;19;20010;-79
2022/08/18 12:21:01;;;;;;;8.30;3.60;;;;;;;28.27;74.04;101476.88;7387175;19;20032;-80
2022/08/18 12:23:36;;;;;;;8.00;4.03;;;;;;;28.35;70.12;101471.97;7392236;19;20344;-80
2022/08/18 12:26:21;;;;;;;7.68;3.45;;;;;;;28.52;69.75;101481.91;7385153;19;20011;-80
2022/08/18 12:29:07;;;;;;;5.82;3.53;;;;;;;28.47;69.31;101481.28;7386205;19;20187;-78